Time;durP1;ratioP1;P1;durP2;ratioP2;P2;SDS_P1;SDS_P2;PMS_P1;PMS_P2;Temp;Humidity;BMP_temperature;BMP_pressure;BME280_temperature;BME280_humidity;BME280_pressure;Samples;Min_cycle;Max_cycle;Signal;HPM_P1;HPM_P2
2022/09/21 00:00:38;;;;;;;7.93;3.15;;;10.40;99.90;;;;;;5061494;28;20035;-76
2022/09/21 00:03:05;;;;;;;11.65;3.95;;;10.30;99.90;;;;;;5063886;28;20035;-76
2022/09/21 00:05:31;;;;;;;10.32;3.20;;;10.40;99.90;;;;;;5067787;28;20024;-76
2022/09/21 00:08:01;;;;;;;13.02;3.90;;;10.30;99.90;;;;;;5065647;28;20035;-76
2022/09/21 00:10:28;;;;;;;12.25;3.75;;;10.30;99.90;;;;;;5060856;28;20036;-76
2022/09/21 00:12:55;;;;;;;8.20;3.42;;;10.30;99.90;;;;;;5057931;28;20503;-76
2022/09/21 00:15:20;;;;;;;11.82;4.47;;;10.30;99.90;;;;;;5079785;28;20041;-76
2022/09/21 00:17:52;;;;;;;8.48;3.63;;;10.20;99.90;;;;;;5064726;28;20028;-76
2022/09/21 00:20:18;;;;;;;9.27;3.58;;;10.20;99.90;;;;;;5062487;28;20040;-75
2022/09/21 00:22:46;;;;;;;10.57;3.75;;;10.20;99.90;;;;;;5064673;28;20438;-76
2022/09/21 00:25:13;;;;;;;9.43;3.25;;;10.20;99.90;;;;;;5043103;28;20040;-76
2022/09/21 00:27:38;;;;;;;8.98;3.58;;;10.20;99.90;;;;;;5064942;28;20035;-75
2022/09/21 00:30:05;;;;;;;8.35;3.20;;;10.20;99.90;;;;;;5057785;28;20025;-76
2022/09/21 00:32:33;;;;;;;10.98;3.20;;;10.20;99.90;;;;;;5063719;28;20036;-76
2022/09/21 00:34:59;;;;;;;7.60;3.33;;;10.20;99.90;;;;;;5062564;28;20021;-76
2022/09/21 00:37:26;;;;;;;8.98;3.38;;;10.20;99.90;;;;;;5043269;28;20111;-76
2022/09/21 00:39:52;;;;;;;11.75;3.83;;;10.20;99.90;;;;;;5060393;28;20495;-76
2022/09/21 00:42:26;;;;;;;8.23;3.63;;;10.10;99.90;;;;;;5060804;28;20037;-76
2022/09/21 00:44:52;;;;;;;10.95;3.00;;;10.10;99.90;;;;;;5044815;28;20032;-75
2022/09/21 00:47:30;;;;;;;15.32;3.28;;;10.10;99.90;;;;;;5063697;28;20082;-76
2022/09/21 00:49:57;;;;;;;10.77;3.50;;;10.10;99.90;;;;;;5068239;28;20024;-76
2022/09/21 00:52:25;;;;;;;7.05;3.03;;;10.10;99.90;;;;;;5067506;28;20033;-76
2022/09/21 00:54:58;;;;;;;8.32;2.92;;;10.00;99.90;;;;;;5057180;28;20404;-76
2022/09/21 00:57:26;;;;;;;9.93;3.13;;;10.00;99.90;;;;;;5065048;28;20112;-76
2022/09/21 00:59:56;;;;;;;6.60;3.20;;;10.00;99.90;;;;;;5063247;28;20021;-74
2022/09/21 01:02:22;;;;;;;10.75;3.30;;;10.00;99.90;;;;;;5066555;28;20158;-75
2022/09/21 01:04:52;;;;;;;9.25;3.30;;;10.00;99.90;;;;;;5073716;28;20434;-73
2022/09/21 01:07:21;;;;;;;7.78;3.22;;;10.00;99.90;;;;;;5070578;28;20037;-76
2022/09/21 01:09:51;;;;;;;8.50;3.17;;;10.00;99.90;;;;;;5066955;28;20031;-75
2022/09/21 01:12:45;;;;;;;7.57;3.58;;;9.90;99.90;;;;;;5062076;28;20067;-75
2022/09/21 01:15:47;;;;;;;8.13;2.90;;;9.90;99.90;;;;;;5062905;28;20024;-75
2022/09/21 01:18:23;;;;;;;7.25;2.92;;;9.90;99.90;;;;;;5064844;28;20025;-75
2022/09/21 01:21:14;;;;;;;8.15;3.40;;;9.90;99.90;;;;;;5065067;28;20571;-77
2022/09/21 01:24:13;;;;;;;10.27;2.70;;;9.90;99.90;;;;;;5061700;28;20038;-75
2022/09/21 01:27:07;;;;;;;8.52;2.80;;;9.90;99.90;;;;;;5066707;28;20091;-75
2022/09/21 01:29:55;;;;;;;7.22;3.22;;;9.90;99.90;;;;;;5053989;28;20025;-75
2022/09/21 01:32:30;;;;;;;8.13;2.80;;;9.80;99.90;;;;;;5063468;28;20102;-75
2022/09/21 01:35:05;;;;;;;5.82;2.78;;;9.80;99.90;;;;;;5056177;28;20092;-74
2022/09/21 01:37:37;;;;;;;8.73;3.40;;;9.80;99.90;;;;;;5062706;28;20028;-75
2022/09/21 01:40:16;;;;;;;10.32;3.05;;;9.80;99.90;;;;;;5062517;28;20108;-75
2022/09/21 01:42:44;;;;;;;7.63;3.05;;;9.80;99.90;;;;;;5070589;28;20401;-76
2022/09/21 01:45:15;;;;;;;14.13;3.00;;;9.90;99.90;;;;;;5061190;28;20036;-77
2022/09/21 01:47:44;;;;;;;10.70;2.90;;;9.80;99.90;;;;;;5066228;28;20100;-75
2022/09/21 01:50:11;;;;;;;9.40;3.65;;;9.80;99.90;;;;;;5067481;28;20024;-77
2022/09/21 01:53:02;;;;;;;9.13;2.90;;;9.80;99.90;;;;;;5066292;28;20025;-75
2022/09/21 01:55:37;;;;;;;8.57;2.80;;;9.80;99.90;;;;;;5063020;28;20135;-75
2022/09/21 01:58:29;;;;;;;7.65;2.65;;;9.80;99.90;;;;;;5068138;28;20013;-75
2022/09/21 02:00:56;;;;;;;12.90;3.50;;;9.80;99.90;;;;;;5058997;28;20782;-75
2022/09/21 02:03:31;;;;;;;7.55;2.97;;;9.70;99.90;;;;;;5058176;28;20501;-77
2022/09/21 02:05:58;;;;;;;5.85;2.80;;;9.70;99.90;;;;;;5082859;28;20032;-74
2022/09/21 02:08:27;;;;;;;7.15;3.13;;;9.70;99.90;;;;;;5059951;28;20115;-77
2022/09/21 02:10:54;;;;;;;8.88;3.13;;;9.70;99.90;;;;;;5061068;28;20032;-74
2022/09/21 02:13:24;;;;;;;14.68;3.58;;;9.60;99.90;;;;;;5064769;28;20032;-75
2022/09/21 02:16:09;;;;;;;5.50;3.13;;;9.60;99.90;;;;;;5061811;28;20024;-75
2022/09/21 02:18:56;;;;;;;13.18;3.25;;;9.60;99.90;;;;;;5055543;28;20043;-75
2022/09/21 02:21:50;;;;;;;6.63;2.60;;;9.60;99.90;;;;;;5066372;28;20082;-74
2022/09/21 02:24:31;;;;;;;7.50;3.00;;;9.60;99.90;;;;;;5059901;28;20041;-75
2022/09/21 02:27:09;;;;;;;10.85;3.20;;;9.60;99.90;;;;;;5066029;28;20040;-75
2022/09/21 02:30:03;;;;;;;9.05;2.97;;;9.60;99.90;;;;;;5055873;28;20037;-75
2022/09/21 02:33:08;;;;;;;12.00;3.53;;;9.60;99.90;;;;;;5067364;28;20028;-75
2022/09/21 02:35:48;;;;;;;9.07;3.25;;;9.60;99.90;;;;;;5056754;28;20040;-75
2022/09/21 02:38:37;;;;;;;8.27;3.03;;;9.50;99.90;;;;;;5063830;28;20046;-76
2022/09/21 02:41:06;;;;;;;8.00;3.10;;;9.50;99.90;;;;;;5067984;28;20025;-75
2022/09/21 02:43:39;;;;;;;7.38;2.95;;;9.50;99.90;;;;;;5065598;28;20052;-75
2022/09/21 02:46:31;;;;;;;8.98;3.92;;;9.50;99.90;;;;;;5062825;28;20028;-76
2022/09/21 02:49:07;;;;;;;8.80;3.20;;;9.60;99.90;;;;;;5049176;28;20507;-75
2022/09/21 02:51:37;;;;;;;7.57;2.70;;;9.60;99.90;;;;;;5064616;28;20572;-74
2022/09/21 02:54:07;;;;;;;8.98;2.70;;;9.60;99.90;;;;;;5062205;28;20024;-75
2022/09/21 02:56:34;;;;;;;9.18;3.65;;;9.50;99.90;;;;;;5062144;28;20032;-75
2022/09/21 02:59:03;;;;;;;7.10;2.72;;;9.50;99.90;;;;;;5058760;28;20024;-75
2022/09/21 03:01:30;;;;;;;5.97;2.92;;;9.50;99.90;;;;;;5061640;28;20040;-75
2022/09/21 03:03:56;;;;;;;6.35;2.63;;;9.50;99.90;;;;;;5060208;28;20484;-75
2022/09/21 03:06:22;;;;;;;6.10;3.00;;;9.50;99.90;;;;;;5063420;28;20040;-74
2022/09/21 03:08:48;;;;;;;11.10;2.78;;;9.40;99.90;;;;;;5060603;28;20035;-74
2022/09/21 03:11:18;;;;;;;7.95;2.85;;;9.40;99.90;;;;;;5055662;28;20060;-74
2022/09/21 03:13:44;;;;;;;6.55;2.95;;;9.40;99.90;;;;;;5071705;28;20033;-76
2022/09/21 03:16:10;;;;;;;8.05;3.17;;;9.40;99.90;;;;;;5057164;28;20492;-73
2022/09/21 03:18:36;;;;;;;8.32;3.28;;;9.40;99.90;;;;;;5060064;28;20116;-74
2022/09/21 03:21:02;;;;;;;7.40;3.40;;;9.40;99.90;;;;;;5058043;28;20044;-75
2022/09/21 03:23:28;;;;;;;10.75;3.75;;;9.40;99.90;;;;;;5033960;28;21033;-74
2022/09/21 03:25:53;;;;;;;7.95;2.80;;;9.30;99.90;;;;;;5059963;28;20412;-75
2022/09/21 03:28:20;;;;;;;6.53;3.28;;;9.30;99.90;;;;;;5043554;28;20042;-75
2022/09/21 03:30:50;;;;;;;6.30;3.17;;;9.30;99.90;;;;;;5064902;28;20043;-75
2022/09/21 03:33:20;;;;;;;11.05;2.88;;;9.30;99.90;;;;;;5062100;28;20072;-75
2022/09/21 03:35:47;;;;;;;8.05;3.60;;;9.30;99.90;;;;;;5065573;28;20021;-75
2022/09/21 03:38:15;;;;;;;9.23;2.95;;;9.30;99.90;;;;;;5056338;28;20021;-75
2022/09/21 03:40:45;;;;;;;10.38;3.90;;;9.30;99.90;;;;;;5055884;28;20043;-75
2022/09/21 03:43:11;;;;;;;7.65;3.05;;;9.30;99.90;;;;;;5056583;28;20048;-75
2022/09/21 03:45:39;;;;;;;8.73;3.60;;;9.30;99.90;;;;;;5055843;28;20036;-75
2022/09/21 03:48:05;;;;;;;7.00;3.50;;;9.30;99.90;;;;;;5044688;28;20024;-75
2022/09/21 03:50:31;;;;;;;9.65;3.15;;;9.30;99.90;;;;;;5059599;28;20028;-75
2022/09/21 03:52:57;;;;;;;5.53;3.00;;;9.20;99.90;;;;;;5061993;28;20032;-75
2022/09/21 03:55:23;;;;;;;8.13;3.22;;;9.20;99.90;;;;;;5067377;28;20025;-75
2022/09/21 03:57:49;;;;;;;8.48;3.50;;;9.20;99.90;;;;;;5059117;28;20082;-75
2022/09/21 04:00:15;;;;;;;4.82;2.90;;;9.20;99.90;;;;;;5046978;28;20049;-75
2022/09/21 04:02:41;;;;;;;7.68;3.38;;;9.20;99.90;;;;;;5067967;28;20032;-75
2022/09/21 04:05:08;;;;;;;7.65;3.45;;;9.20;99.90;;;;;;5066377;28;20759;-74
2022/09/21 04:07:35;;;;;;;6.78;3.63;;;9.20;99.90;;;;;;5067109;28;20056;-75
2022/09/21 04:10:02;;;;;;;8.18;3.47;;;9.20;99.90;;;;;;5070640;28;20424;-75
2022/09/21 04:12:28;;;;;;;9.38;4.07;;;9.20;99.90;;;;;;5061321;28;20052;-76
2022/09/21 04:14:53;;;;;;;8.27;4.13;;;9.20;99.90;;;;;;5061556;28;20052;-75
2022/09/21 04:17:19;;;;;;;6.53;3.92;;;9.20;99.90;;;;;;5068377;28;20529;-75
2022/09/21 04:19:45;;;;;;;9.93;3.85;;;9.20;99.90;;;;;;5069769;28;20029;-75
2022/09/21 04:22:15;;;;;;;7.57;4.43;;;9.20;99.90;;;;;;5070166;28;20024;-75
2022/09/21 04:24:41;;;;;;;11.48;4.70;;;9.10;99.90;;;;;;5062991;28;20059;-75
2022/09/21 04:27:10;;;;;;;6.07;4.03;;;9.20;99.90;;;;;;5064062;28;20450;-75
2022/09/21 04:29:37;;;;;;;6.07;3.92;;;9.20;99.90;;;;;;5059831;28;20534;-75
2022/09/21 04:32:03;;;;;;;7.65;4.35;;;9.20;99.90;;;;;;5060673;28;20029;-75
2022/09/21 04:34:30;;;;;;;11.75;4.80;;;9.20;99.90;;;;;;5050010;28;20489;-75
2022/09/21 04:36:57;;;;;;;9.23;4.28;;;9.20;99.90;;;;;;5064662;28;20020;-75
2022/09/21 04:39:23;;;;;;;8.95;4.85;;;9.20;99.90;;;;;;5061627;28;20116;-76
2022/09/21 04:41:49;;;;;;;12.18;5.32;;;9.20;99.90;;;;;;5065707;28;20032;-75
2022/09/21 04:44:14;;;;;;;10.25;5.75;;;9.10;99.90;;;;;;5058393;28;20032;-75
2022/09/21 04:46:41;;;;;;;11.20;5.30;;;9.10;99.90;;;;;;5062492;28;20099;-75
2022/09/21 04:49:07;;;;;;;10.40;5.07;;;9.10;99.90;;;;;;5065020;28;20075;-75
2022/09/21 04:51:33;;;;;;;14.73;5.60;;;9.10;99.90;;;;;;5065980;28;20063;-75
2022/09/21 04:53:59;;;;;;;11.50;5.40;;;9.10;99.90;;;;;;5064002;28;20492;-75
2022/09/21 04:56:25;;;;;;;10.73;5.65;;;9.10;99.90;;;;;;5056946;28;20028;-76
2022/09/21 04:58:50;;;;;;;13.50;5.25;;;9.10;99.90;;;;;;5066526;28;20065;-76
2022/09/21 05:01:16;;;;;;;10.95;5.00;;;9.10;99.90;;;;;;5060956;28;20152;-73
2022/09/21 05:03:42;;;;;;;12.30;5.80;;;9.10;99.90;;;;;;5065176;28;20051;-73
2022/09/21 05:06:10;;;;;;;17.48;6.50;;;9.10;99.90;;;;;;5063075;28;20041;-72
2022/09/21 05:11:21;;;;;;;13.95;6.03;;;9.10;99.90;;;;;;5062661;28;20533;-76
2022/09/21 05:13:47;;;;;;;16.45;5.88;;;9.10;99.90;;;;;;5065072;28;20070;-75
2022/09/21 05:16:14;;;;;;;10.45;5.65;;;9.00;99.90;;;;;;5059737;28;20553;-76
2022/09/21 05:18:40;;;;;;;12.25;5.20;;;9.00;99.90;;;;;;5060748;28;20029;-76
2022/09/21 05:21:06;;;;;;;16.00;6.10;;;9.00;99.90;;;;;;5037557;28;20081;-75
2022/09/21 05:23:32;;;;;;;13.05;6.15;;;9.00;99.90;;;;;;5055926;28;20060;-75
2022/09/21 05:25:58;;;;;;;13.98;6.47;;;9.00;99.90;;;;;;5065189;28;20138;-76
2022/09/21 05:28:25;;;;;;;11.95;5.93;;;9.00;99.90;;;;;;5061620;28;20032;-77
2022/09/21 05:31:03;;;;;;;13.48;6.28;;;9.00;99.90;;;;;;5072245;28;20028;-75
2022/09/21 05:33:32;;;;;;;11.98;6.28;;;9.00;99.90;;;;;;5051972;28;20025;-77
2022/09/21 05:36:28;;;;;;;15.18;6.57;;;9.00;99.90;;;;;;5067815;28;20051;-78
2022/09/21 05:38:55;;;;;;;12.88;6.57;;;9.10;99.90;;;;;;5061827;28;20048;-77
2022/09/21 05:41:21;;;;;;;13.60;6.75;;;9.00;99.90;;;;;;5068400;28;20127;-78
2022/09/21 05:43:47;;;;;;;14.63;7.35;;;9.10;99.90;;;;;;5068237;28;20141;-77
2022/09/21 05:46:18;;;;;;;13.82;7.03;;;9.20;99.90;;;;;;5069952;28;20064;-77
2022/09/21 05:48:59;;;;;;;13.35;6.90;;;9.20;99.90;;;;;;5063070;28;20016;-77
2022/09/21 05:51:50;;;;;;;11.90;7.00;;;9.20;99.90;;;;;;5062906;28;20500;-77
2022/09/21 05:54:44;;;;;;;10.73;6.38;;;9.10;99.90;;;;;;5062849;28;20669;-77
2022/09/21 05:57:36;;;;;;;11.68;7.10;;;9.10;99.90;;;;;;5063337;28;20152;-77
2022/09/21 06:00:16;;;;;;;11.98;7.00;;;9.10;99.90;;;;;;5060983;28;21540;-76
2022/09/21 06:02:53;;;;;;;11.82;4.60;;;9.10;99.90;;;;;;5053837;28;20408;-76
2022/09/21 06:05:19;;;;;;;14.23;7.00;;;10.00;99.90;;;;;;5061935;28;20029;-78
2022/09/21 06:07:44;;;;;;;12.15;7.57;;;9.90;99.90;;;;;;5054617;28;20031;-77
2022/09/21 06:10:14;;;;;;;12.73;7.93;;;9.60;99.90;;;;;;5066678;28;20559;-77
2022/09/21 06:12:39;;;;;;;14.15;7.70;;;9.50;99.90;;;;;;5051408;28;20028;-78
2022/09/21 06:15:09;;;;;;;13.93;7.72;;;9.40;99.90;;;;;;5068939;28;20522;-78
2022/09/21 06:17:35;;;;;;;11.70;7.25;;;9.40;99.90;;;;;;5047430;28;20028;-77
2022/09/21 06:20:02;;;;;;;13.00;7.78;;;9.30;99.90;;;;;;5070825;28;20039;-78
2022/09/21 06:22:28;;;;;;;12.77;8.02;;;9.30;99.90;;;;;;5066158;28;20029;-78
2022/09/21 06:24:54;;;;;;;15.10;7.78;;;9.40;99.90;;;;;;5078102;28;20148;-77
2022/09/21 06:27:20;;;;;;;12.10;8.32;;;9.30;99.90;;;;;;5076921;28;20041;-76
2022/09/21 06:29:46;;;;;;;14.68;8.10;;;9.40;99.90;;;;;;5073274;28;20111;-78
2022/09/21 06:32:12;;;;;;;11.00;7.38;;;9.40;99.90;;;;;;5069831;28;20030;-78
2022/09/21 06:34:38;;;;;;;11.30;7.43;;;9.40;99.90;;;;;;5074136;28;20048;-78
2022/09/21 06:37:04;;;;;;;12.52;7.82;;;9.40;99.90;;;;;;5070874;28;20381;-77
2022/09/21 06:39:32;;;;;;;15.40;8.23;;;9.50;99.90;;;;;;5065227;28;20048;-78
2022/09/21 06:41:58;;;;;;;10.98;7.95;;;9.50;99.90;;;;;;5069963;28;20033;-75
2022/09/21 06:44:25;;;;;;;12.07;8.48;;;9.50;99.90;;;;;;5071411;28;20039;-78
2022/09/21 06:46:51;;;;;;;11.73;8.45;;;9.60;99.90;;;;;;5053339;28;20044;-78
2022/09/21 06:49:16;;;;;;;13.90;8.50;;;9.60;99.90;;;;;;5070943;28;20120;-77
2022/09/21 06:51:42;;;;;;;12.80;8.85;;;9.70;99.90;;;;;;5067981;28;20028;-79
2022/09/21 06:54:08;;;;;;;14.45;9.02;;;9.70;99.90;;;;;;5069701;28;20028;-77
2022/09/21 06:56:34;;;;;;;12.95;8.75;;;9.70;99.90;;;;;;5076756;28;20021;-78
2022/09/21 06:59:01;;;;;;;12.88;8.70;;;9.80;99.90;;;;;;5065968;28;20031;-78
2022/09/21 07:01:27;;;;;;;11.95;8.50;;;9.80;99.90;;;;;;5070830;28;20033;-78
2022/09/21 07:03:53;;;;;;;13.82;9.40;;;9.90;99.90;;;;;;5072005;28;20090;-78
2022/09/21 07:06:19;;;;;;;10.02;8.13;;;9.90;99.90;;;;;;5056077;28;20029;-77
2022/09/21 07:08:46;;;;;;;13.52;8.50;;;10.00;99.90;;;;;;5051958;28;20171;-78
2022/09/21 07:11:12;;;;;;;11.68;8.40;;;10.00;99.90;;;;;;5069683;28;20032;-77
2022/09/21 07:13:39;;;;;;;12.10;8.35;;;10.10;99.90;;;;;;5065447;28;20048;-78
2022/09/21 07:16:06;;;;;;;12.00;8.60;;;10.10;99.90;;;;;;5060691;28;20076;-79
2022/09/21 07:18:37;;;;;;;17.35;10.07;;;10.10;99.90;;;;;;5058932;28;20305;-79
2022/09/21 07:21:05;;;;;;;18.35;9.25;;;10.20;99.90;;;;;;5056730;28;20446;-79
2022/09/21 07:23:31;;;;;;;20.85;10.30;;;10.20;99.90;;;;;;5075862;28;20040;-78
2022/09/21 07:26:01;;;;;;;17.65;9.52;;;10.20;99.90;;;;;;5070073;28;20504;-76
2022/09/21 07:28:27;;;;;;;15.07;8.93;;;10.30;99.90;;;;;;5088197;28;20033;-79
2022/09/21 07:30:53;;;;;;;16.67;8.88;;;10.40;99.90;;;;;;5071712;28;20159;-78
2022/09/21 07:33:19;;;;;;;15.95;8.52;;;10.40;99.90;;;;;;5069678;28;20563;-76
2022/09/21 07:35:52;;;;;;;14.63;8.90;;;10.40;99.90;;;;;;5065636;28;20029;-79
2022/09/21 07:38:18;;;;;;;14.65;7.80;;;10.50;99.90;;;;;;5063770;28;20089;-78
2022/09/21 07:40:44;;;;;;;14.90;8.15;;;10.50;99.90;;;;;;5070105;28;20059;-79
2022/09/21 07:43:10;;;;;;;13.52;7.93;;;10.60;99.90;;;;;;5073063;28;20488;-78
2022/09/21 07:45:35;;;;;;;17.02;8.18;;;10.70;99.90;;;;;;5068392;28;20103;-79
2022/09/21 07:48:05;;;;;;;12.68;7.70;;;10.70;99.90;;;;;;5068861;28;20076;-78
2022/09/21 07:50:33;;;;;;;12.75;6.65;;;10.80;99.90;;;;;;5068730;28;20027;-79
2022/09/21 07:52:59;;;;;;;12.90;7.15;;;10.80;99.90;;;;;;5069741;28;20104;-79
2022/09/21 07:55:25;;;;;;;11.30;6.65;;;10.90;99.90;;;;;;5068334;28;20025;-79
2022/09/21 08:00:36;;;;;;;13.73;7.70;;;11.00;99.90;;;;;;5066469;28;20051;-79
2022/09/21 08:03:02;;;;;;;13.65;6.90;;;11.00;99.90;;;;;;5060575;28;20084;-77
2022/09/21 08:05:27;;;;;;;13.63;8.02;;;11.10;99.90;;;;;;5062877;28;20083;-79
2022/09/21 08:07:56;;;;;;;15.60;7.45;;;11.10;99.90;;;;;;5065473;28;20025;-77
2022/09/21 08:10:28;;;;;;;10.82;6.75;;;11.20;99.90;;;;;;5073214;28;20094;-80
2022/09/21 08:12:55;;;;;;;12.50;4.47;;;11.20;99.90;;;;;;5066232;28;20036;-78
2022/09/21 08:15:22;;;;;;;11.85;5.35;;;11.30;99.90;;;;;;5069914;28;20040;-78
2022/09/21 08:17:49;;;;;;;10.27;5.95;;;11.40;99.90;;;;;;5054111;28;20045;-78
2022/09/21 08:20:15;;;;;;;11.27;7.03;;;11.50;99.90;;;;;;5073121;28;20095;-78
2022/09/21 08:22:41;;;;;;;9.77;5.68;;;11.60;99.90;;;;;;5066201;28;20048;-78
2022/09/21 08:25:08;;;;;;;10.70;4.55;;;11.60;99.90;;;;;;5063691;28;20040;-76
2022/09/21 08:27:34;;;;;;;7.93;4.47;;;11.70;99.90;;;;;;5043664;28;20024;-76
2022/09/21 08:30:00;;;;;;;9.75;4.72;;;11.70;99.90;;;;;;5049710;28;20035;-78
2022/09/21 08:32:26;;;;;;;13.20;5.78;;;11.80;99.90;;;;;;5068313;28;20059;-78
2022/09/21 08:34:51;;;;;;;14.48;4.78;;;11.80;99.90;;;;;;5067793;28;20024;-78
2022/09/21 08:37:20;;;;;;;9.30;5.65;;;11.90;99.90;;;;;;5063311;28;20037;-76
2022/09/21 08:39:47;;;;;;;8.18;4.15;;;12.00;99.90;;;;;;5067705;28;20033;-78
2022/09/21 08:42:30;;;;;;;11.15;3.85;;;12.10;99.90;;;;;;5055987;28;20025;-77
2022/09/21 08:45:03;;;;;;;6.13;3.20;;;12.10;99.90;;;;;;5054104;28;20040;-77
2022/09/21 08:47:40;;;;;;;7.03;3.63;;;12.20;99.90;;;;;;5072114;28;20047;-77
2022/09/21 08:50:25;;;;;;;7.53;3.00;;;12.20;99.90;;;;;;5069522;28;20040;-78
2022/09/21 08:52:56;;;;;;;6.30;3.53;;;12.20;99.90;;;;;;5067144;28;20032;-76
2022/09/21 08:55:23;;;;;;;8.65;3.58;;;12.20;99.90;;;;;;5071004;28;20037;-77
2022/09/21 08:57:48;;;;;;;6.57;3.38;;;12.30;99.90;;;;;;5050251;28;20043;-77
2022/09/21 09:00:18;;;;;;;6.82;3.15;;;12.40;99.90;;;;;;5066182;28;20107;-77
2022/09/21 09:02:47;;;;;;;7.25;3.80;;;12.50;99.90;;;;;;5065558;28;20032;-77
2022/09/21 09:05:18;;;;;;;5.40;3.00;;;12.50;99.90;;;;;;5075977;28;20784;-78
2022/09/21 09:08:11;;;;;;;10.75;3.65;;;12.50;99.90;;;;;;5073209;28;20035;-77
2022/09/21 09:11:24;;;;;;;7.00;3.38;;;12.50;99.90;;;;;;5062810;28;20524;-78
2022/09/21 09:14:05;;;;;;;6.72;2.72;;;12.60;99.90;;;;;;5031922;28;20553;-77
2022/09/21 09:16:59;;;;;;;8.27;2.90;;;12.70;99.90;;;;;;5067026;28;20038;-77
2022/09/21 09:19:55;;;;;;;5.70;2.50;;;12.80;99.90;;;;;;5069652;28;20278;-78
2022/09/21 09:22:33;;;;;;;4.32;2.72;;;12.90;99.90;;;;;;5067498;28;20043;-77
2022/09/21 09:25:18;;;;;;;6.18;2.10;;;13.00;99.90;;;;;;5061548;28;20032;-77
2022/09/21 09:27:45;;;;;;;3.67;1.80;;;13.00;99.90;;;;;;5049462;28;20032;-77
2022/09/21 09:30:18;;;;;;;3.70;1.98;;;13.10;99.90;;;;;;5064500;28;20044;-76
2022/09/21 09:33:21;;;;;;;3.25;1.75;;;13.20;99.90;;;;;;5047421;28;20040;-77
2022/09/21 09:36:03;;;;;;;4.25;1.85;;;13.20;99.90;;;;;;5048259;28;20600;-77
2022/09/21 09:38:57;;;;;;;4.30;1.73;;;13.20;99.90;;;;;;5066598;28;20024;-77
2022/09/21 09:41:26;;;;;;;5.57;1.20;;;13.30;99.90;;;;;;5053399;28;20090;-77
2022/09/21 09:44:16;;;;;;;2.75;1.38;;;13.50;99.90;;;;;;5054985;28;20044;-78
2022/09/21 09:46:58;;;;;;;2.97;1.73;;;13.70;99.90;;;;;;5086763;28;20111;-78
2022/09/21 09:49:31;;;;;;;4.20;1.88;;;13.80;99.90;;;;;;5067461;28;20043;-79
2022/09/21 09:51:58;;;;;;;5.18;1.55;;;14.00;99.90;;;;;;5069065;28;20032;-77
2022/09/21 09:54:26;;;;;;;3.58;1.73;;;13.90;99.90;;;;;;5074704;28;20062;-78
2022/09/21 09:56:54;;;;;;;2.92;1.10;;;13.90;99.90;;;;;;5071241;28;20036;-76
2022/09/21 09:59:40;;;;;;;4.07;1.20;;;14.00;99.90;;;;;;5067866;28;20028;-77
2022/09/21 10:02:21;;;;;;;6.22;1.30;;;14.10;99.90;;;;;;5091343;28;20647;-77
2022/09/21 10:05:04;;;;;;;3.83;1.10;;;14.10;99.90;;;;;;5077567;28;20078;-78
2022/09/21 10:07:39;;;;;;;2.42;1.42;;;14.10;99.90;;;;;;5071744;28;20024;-77
2022/09/21 10:10:20;;;;;;;5.45;1.23;;;14.20;99.90;;;;;;5054865;28;20407;-75
2022/09/21 10:12:47;;;;;;;4.53;1.70;;;14.20;99.90;;;;;;5058392;28;20151;-76
2022/09/21 10:15:14;;;;;;;5.43;1.65;;;14.10;99.90;;;;;;5063279;28;20020;-78
2022/09/21 10:17:44;;;;;;;4.18;1.27;;;14.20;99.90;;;;;;5070038;28;20035;-77
2022/09/21 10:20:16;;;;;;;3.25;1.20;;;14.30;99.90;;;;;;5065017;28;20044;-77
2022/09/21 10:22:53;;;;;;;7.28;2.55;;;14.30;99.90;;;;;;5070185;28;20028;-76
2022/09/21 10:25:20;;;;;;;4.82;1.80;;;14.40;99.90;;;;;;5077212;28;20068;-78
2022/09/21 10:27:50;;;;;;;6.63;1.55;;;14.50;99.90;;;;;;5071687;28;20035;-78
2022/09/21 10:30:28;;;;;;;5.30;1.60;;;14.60;99.90;;;;;;5068464;28;20080;-77
2022/09/21 10:32:56;;;;;;;5.15;1.80;;;14.60;99.90;;;;;;5075850;28;20036;-75
2022/09/21 10:35:21;;;;;;;3.53;1.63;;;14.70;99.90;;;;;;5075299;28;20095;-78
2022/09/21 10:38:07;;;;;;;8.63;1.70;;;14.70;99.90;;;;;;5052271;28;20024;-79
2022/09/21 10:40:36;;;;;;;5.72;1.70;;;14.80;99.90;;;;;;5066520;28;20143;-78
2022/09/21 10:43:02;;;;;;;3.85;2.08;;;15.00;99.90;;;;;;5082945;28;20005;-75
2022/09/21 10:45:29;;;;;;;4.88;2.10;;;15.00;99.90;;;;;;5082982;28;20038;-77
2022/09/21 10:47:58;;;;;;;4.35;1.60;;;15.10;99.90;;;;;;5059202;28;20035;-76
2022/09/21 10:50:45;;;;;;;4.97;1.52;;;15.30;99.90;;;;;;5082078;28;20047;-76
2022/09/21 10:53:30;;;;;;;3.67;1.50;;;15.50;99.90;;;;;;5081701;28;20054;-78
2022/09/21 10:56:04;;;;;;;3.50;1.40;;;16.60;99.90;;;;;;5085159;28;20024;-77
2022/09/21 10:58:32;;;;;;;3.97;1.30;;;18.10;99.90;;;;;;5097145;28;20024;-78
2022/09/21 11:01:19;;;;;;;1.88;1.00;;;19.60;99.20;;;;;;5080038;28;20028;-78
2022/09/21 11:03:59;;;;;;;2.15;1.10;;;21.30;93.60;;;;;;5056317;28;20034;-78
2022/09/21 11:06:36;;;;;;;4.22;1.15;;;22.90;90.90;;;;;;5101579;28;20032;-77
2022/09/21 11:09:32;;;;;;;2.17;0.82;;;22.40;81.60;;;;;;5076062;28;20048;-76
2022/09/21 11:12:19;;;;;;;1.55;0.90;;;21.20;85.50;;;;;;5070151;28;20455;-77
2022/09/21 11:14:50;;;;;;;2.53;0.82;;;19.60;85.90;;;;;;5068409;28;20021;-76
2022/09/21 11:17:38;;;;;;;2.25;0.98;;;19.00;90.80;;;;;;5065419;28;20017;-78
2022/09/21 11:20:24;;;;;;;2.25;1.00;;;19.80;89.90;;;;;;5072392;28;20055;-78
2022/09/21 11:23:18;;;;;;;4.43;1.20;;;19.70;88.50;;;;;;5069872;28;20040;-78
2022/09/21 11:26:15;;;;;;;3.20;0.65;;;19.10;86.20;;;;;;5055314;28;20051;-78
2022/09/21 11:28:50;;;;;;;2.85;1.05;;;18.30;86.60;;;;;;5040834;28;20029;-78
2022/09/21 11:31:40;;;;;;;0.80;0.60;;;17.70;91.10;;;;;;5071573;28;20054;-77
2022/09/21 11:34:18;;;;;;;1.08;0.90;;;17.20;93.00;;;;;;5048227;28;20029;-80
2022/09/21 11:37:18;;;;;;;0.93;0.60;;;16.80;95.00;;;;;;5067679;28;20029;-78
2022/09/21 11:40:09;;;;;;;1.13;0.65;;;16.50;95.40;;;;;;5071265;28;20037;-78
2022/09/21 11:42:39;;;;;;;4.03;1.00;;;16.50;96.00;;;;;;5072215;28;20050;-77
2022/09/21 11:45:24;;;;;;;1.48;0.90;;;16.40;95.60;;;;;;5068048;28;20040;-77
2022/09/21 11:48:03;;;;;;;1.70;0.80;;;16.40;96.60;;;;;;5070688;28;20059;-77
2022/09/21 11:50:41;;;;;;;3.20;0.90;;;16.20;97.20;;;;;;5065014;28;20058;-77
2022/09/21 11:53:24;;;;;;;1.45;0.90;;;16.20;96.60;;;;;;5070297;28;20024;-77
2022/09/21 11:56:07;;;;;;;1.95;1.00;;;16.20;96.80;;;;;;5070802;28;20105;-78
2022/09/21 11:58:42;;;;;;;1.30;0.80;;;16.20;95.70;;;;;;5067614;28;20040;-78
2022/09/21 12:01:34;;;;;;;2.67;1.25;;;16.20;95.90;;;;;;5052447;28;20037;-78
2022/09/21 12:04:39;;;;;;;3.38;1.42;;;16.00;95.50;;;;;;5052245;28;20088;-77
2022/09/21 12:07:31;;;;;;;2.13;1.00;;;15.90;96.50;;;;;;5063228;28;20040;-75
2022/09/21 12:10:23;;;;;;;3.03;1.10;;;15.70;97.30;;;;;;5040920;28;20037;-78
2022/09/21 12:12:48;;;;;;;;;;;15.50;98.70;;;;;;5048080;28;20703;-77
2022/09/21 12:15:27;;;;;;;1.27;0.82;;;15.40;99.10;;;;;;5045626;28;19908;-77
2022/09/21 12:17:56;;;;;;;1.60;0.88;;;15.30;99.70;;;;;;5070384;28;20033;-78
2022/09/21 12:20:30;;;;;;;1.98;0.70;;;15.20;99.90;;;;;;5046658;28;20067;-77
2022/09/21 12:23:05;;;;;;;3.40;0.80;;;15.10;99.90;;;;;;5077371;28;20035;-78
2022/09/21 12:25:39;;;;;;;4.40;0.90;;;15.00;99.90;;;;;;5059916;28;20024;-78
2022/09/21 12:28:22;;;;;;;2.92;1.25;;;15.10;99.30;;;;;;5062060;28;20044;-78
2022/09/21 12:30:56;;;;;;;4.43;1.35;;;15.10;98.30;;;;;;5080321;28;20082;-76
2022/09/21 12:33:34;;;;;;;4.28;1.60;;;15.20;99.20;;;;;;5076830;28;20033;-78
2022/09/21 12:36:27;;;;;;;1.83;1.40;;;15.40;96.80;;;;;;5074776;28;20020;-75
2022/09/21 12:39:09;;;;;;;3.50;1.73;;;15.40;97.30;;;;;;5074420;28;20099;-78
2022/09/21 12:42:14;;;;;;;2.30;1.50;;;15.40;96.20;;;;;;5065701;28;20025;-77
2022/09/21 12:44:51;;;;;;;3.13;1.70;;;15.40;97.70;;;;;;5007932;28;20030;-78
2022/09/21 12:47:47;;;;;;;2.88;1.30;;;15.50;97.30;;;;;;5059317;28;20059;-75
2022/09/21 12:50:47;;;;;;;1.83;1.08;;;15.40;96.20;;;;;;5065644;28;20031;-77
2022/09/21 12:53:18;;;;;;;3.22;1.70;;;15.50;96.80;;;;;;5068587;28;20366;-77
2022/09/21 12:56:10;;;;;;;2.33;1.33;;;15.50;98.20;;;;;;5061864;28;20100;-77
2022/09/21 12:58:47;;;;;;;4.43;1.30;;;15.60;98.20;;;;;;5077547;28;20028;-73
2022/09/21 13:01:24;;;;;;;3.65;1.23;;;15.60;95.90;;;;;;5066934;28;20457;-73
2022/09/21 13:04:09;;;;;;;4.00;1.25;;;15.70;94.90;;;;;;5063885;28;20047;-76
2022/09/21 13:07:06;;;;;;;3.20;1.17;;;15.70;96.80;;;;;;5073401;28;20139;-78
2022/09/21 13:09:38;;;;;;;1.80;1.15;;;15.70;97.80;;;;;;5065968;28;20380;-77
2022/09/21 13:12:13;;;;;;;3.08;1.33;;;15.80;95.50;;;;;;5068704;28;20031;-77
2022/09/21 13:14:46;;;;;;;2.72;1.20;;;15.80;94.30;;;;;;5062796;28;20408;-74
2022/09/21 13:17:23;;;;;;;1.30;0.90;;;15.80;95.60;;;;;;5064176;28;20023;-76
2022/09/21 13:20:25;;;;;;;3.65;1.50;;;15.80;96.40;;;;;;5063568;28;20412;-77
2022/09/21 13:22:57;;;;;;;;;;;15.90;93.40;;;;;;5058938;28;20052;-76
2022/09/21 13:25:28;;;;;;;1.90;1.30;;;15.90;95.20;;;;;;5068931;28;20007;-78